Time;durP1;ratioP1;P1;durP2;ratioP2;P2;SDS_P1;SDS_P2;PMS_P1;PMS_P2;Temp;Humidity;BMP_temperature;BMP_pressure;BME280_temperature;BME280_humidity;BME280_pressure;Samples;Min_cycle;Max_cycle;Signal;HPM_P1;HPM_P2
2021/06/06 00:00:46;;;;;;;18.13;15.23;;;18.90;99.90;;;;;;5098929;28;20626;-78
2021/06/06 00:03:26;;;;;;;14.50;13.20;;;18.90;99.90;;;;;;5079231;28;20584;-78
2021/06/06 00:06:05;;;;;;;15.53;14.03;;;18.90;99.90;;;;;;5079330;28;20662;-79
2021/06/06 00:08:32;;;;;;;15.07;13.13;;;18.90;99.90;;;;;;5095434;28;20584;-79
2021/06/06 00:11:17;;;;;;;15.00;13.50;;;18.90;99.90;;;;;;5114026;28;20671;-79
2021/06/06 00:13:44;;;;;;;15.33;13.73;;;18.80;99.90;;;;;;5113963;28;20617;-79
2021/06/06 00:16:14;;;;;;;16.13;14.40;;;18.80;99.90;;;;;;5113333;28;20681;-79
2021/06/06 00:18:41;;;;;;;15.50;13.90;;;18.80;99.90;;;;;;5113959;28;20580;-78
2021/06/06 00:21:09;;;;;;;15.10;13.50;;;18.80;99.90;;;;;;5114097;28;20576;-78
2021/06/06 00:23:44;;;;;;;17.30;14.33;;;18.70;99.90;;;;;;5114207;28;20630;-78
2021/06/06 00:26:28;;;;;;;16.40;14.70;;;18.70;99.90;;;;;;5095274;28;20628;-78
2021/06/06 00:28:54;;;;;;;15.23;13.63;;;18.70;99.90;;;;;;5078982;28;20569;-78
2021/06/06 00:31:21;;;;;;;15.30;13.70;;;18.70;99.90;;;;;;5095500;28;20564;-78
2021/06/06 00:33:49;;;;;;;18.13;15.77;;;18.70;99.90;;;;;;5095801;28;21049;-79
2021/06/06 00:36:16;;;;;;;16.03;14.40;;;18.70;99.90;;;;;;5099324;28;20596;-78
2021/06/06 00:38:42;;;;;;;16.87;15.27;;;18.70;99.90;;;;;;5095640;28;20657;-79
2021/06/06 00:41:10;;;;;;;14.77;13.37;;;18.70;99.90;;;;;;5095346;28;20565;-79
2021/06/06 00:43:36;;;;;;;16.67;15.07;;;18.70;99.90;;;;;;5095317;28;20663;-78
2021/06/06 00:46:05;;;;;;;14.97;13.47;;;18.70;99.90;;;;;;5095319;28;20703;-79
2021/06/06 00:48:32;;;;;;;16.30;14.70;;;18.70;99.90;;;;;;5081443;28;20613;-79
2021/06/06 00:51:23;;;;;;;17.23;14.87;;;18.60;99.90;;;;;;5095710;28;20630;-78
2021/06/06 00:53:51;;;;;;;19.10;14.63;;;18.60;99.90;;;;;;5113460;28;20609;-79
2021/06/06 00:56:22;;;;;;;16.73;14.87;;;18.60;99.90;;;;;;5078246;28;20620;-78
2021/06/06 00:58:51;;;;;;;18.33;16.00;;;18.60;99.90;;;;;;5079579;28;20606;-77
2021/06/06 01:01:23;;;;;;;15.37;13.47;;;18.60;99.90;;;;;;5095946;28;20591;-78
2021/06/06 01:03:55;;;;;;;14.10;12.60;;;18.60;99.90;;;;;;5096113;28;20583;-79
2021/06/06 01:06:43;;;;;;;15.00;13.60;;;18.50;99.90;;;;;;5094742;28;20612;-79
2021/06/06 01:09:13;;;;;;;14.80;13.30;;;18.50;99.90;;;;;;5112846;28;20699;-78
2021/06/06 01:11:58;;;;;;;14.17;12.67;;;18.50;99.90;;;;;;5094946;28;20698;-77
2021/06/06 01:14:42;;;;;;;16.00;12.50;;;18.50;99.90;;;;;;5117455;28;20636;-79
2021/06/06 01:17:12;;;;;;;14.50;12.80;;;18.50;99.90;;;;;;5077310;28;20581;-77
2021/06/06 01:20:01;;;;;;;12.77;11.30;;;18.50;99.90;;;;;;5079065;28;20570;-78
2021/06/06 01:22:50;;;;;;;12.27;10.37;;;18.40;99.90;;;;;;5094735;28;21072;-78
2021/06/06 01:25:44;;;;;;;12.77;11.50;;;18.40;99.90;;;;;;5078498;28;20604;-79
2021/06/06 01:28:19;;;;;;;14.83;12.17;;;18.40;99.90;;;;;;5094420;28;20571;-79
2021/06/06 01:30:51;;;;;;;13.37;11.83;;;18.40;99.90;;;;;;5093438;28;20949;-79
2021/06/06 01:33:48;;;;;;;14.47;12.97;;;18.30;99.90;;;;;;5076982;28;20627;-78
2021/06/06 01:36:22;;;;;;;13.00;11.60;;;18.30;99.90;;;;;;5060365;28;21252;-80
2021/06/06 01:38:57;;;;;;;12.07;10.93;;;18.30;99.90;;;;;;5077636;28;20601;-80
2021/06/06 01:41:34;;;;;;;12.33;10.73;;;18.30;99.90;;;;;;5078060;28;21361;-79
2021/06/06 01:44:02;;;;;;;12.23;10.93;;;18.20;99.90;;;;;;5076901;28;20587;-80
2021/06/06 01:46:39;;;;;;;11.37;10.17;;;18.30;99.90;;;;;;5077502;28;20593;-81
2021/06/06 01:49:11;;;;;;;12.50;11.30;;;18.20;99.90;;;;;;5012318;28;20577;-80
2021/06/06 01:51:43;;;;;;;14.80;11.27;;;18.20;99.90;;;;;;5096707;28;20707;-81
2021/06/06 01:54:12;;;;;;;12.50;10.07;;;18.20;99.90;;;;;;5108572;28;20635;-79
2021/06/06 01:56:40;;;;;;;10.63;9.57;;;18.20;99.90;;;;;;5111217;28;20580;-79
2021/06/06 01:59:20;;;;;;;12.10;10.10;;;18.20;99.90;;;;;;5103513;28;20575;-80
2021/06/06 02:01:53;;;;;;;11.60;10.50;;;18.20;99.90;;;;;;5106059;28;20561;-80
2021/06/06 02:04:21;;;;;;;12.10;10.27;;;18.20;99.90;;;;;;5101518;28;20569;-79
2021/06/06 02:07:16;;;;;;;10.93;9.60;;;18.20;99.90;;;;;;5096871;28;20579;-80
2021/06/06 02:10:10;;;;;;;10.27;9.10;;;18.20;99.90;;;;;;5118808;28;20575;-79
2021/06/06 02:12:40;;;;;;;10.97;9.83;;;18.20;99.90;;;;;;5096217;28;20619;-80
2021/06/06 02:15:12;;;;;;;9.83;8.77;;;18.20;99.90;;;;;;5094122;28;20619;-81
2021/06/06 02:17:50;;;;;;;12.17;10.97;;;18.10;99.90;;;;;;5082564;28;20633;-80
2021/06/06 02:20:24;;;;;;;11.43;10.20;;;18.10;99.90;;;;;;5105514;28;20564;-80
2021/06/06 02:22:53;;;;;;;9.80;8.80;;;18.10;99.90;;;;;;5106837;28;20564;-81
2021/06/06 02:25:21;;;;;;;11.50;9.70;;;18.10;99.90;;;;;;5107844;28;20597;-79
2021/06/06 02:28:28;;;;;;;11.00;10.00;;;18.10;99.90;;;;;;5110554;28;20545;-80
2021/06/06 02:31:15;;;;;;;10.23;9.33;;;18.00;99.90;;;;;;5101068;28;20593;-80
2021/06/06 02:34:06;;;;;;;11.17;9.97;;;18.00;99.90;;;;;;5107537;28;20656;-75
2021/06/06 02:36:36;;;;;;;9.80;8.10;;;18.00;99.90;;;;;;5106089;28;20585;-75
2021/06/06 02:39:12;;;;;;;10.27;9.10;;;18.10;99.90;;;;;;5098377;28;20607;-76
2021/06/06 02:42:04;;;;;;;9.20;8.20;;;18.10;99.90;;;;;;5104243;28;20584;-77
2021/06/06 02:44:52;;;;;;;10.73;9.40;;;18.10;99.90;;;;;;5122091;28;20616;-76
2021/06/06 02:47:32;;;;;;;9.17;8.27;;;18.10;99.90;;;;;;5101119;28;20682;-76
2021/06/06 02:50:13;;;;;;;10.93;8.97;;;18.10;99.90;;;;;;5107159;28;20564;-76
2021/06/06 02:52:44;;;;;;;10.63;9.63;;;18.10;99.90;;;;;;5100524;28;20603;-77
2021/06/06 02:55:27;;;;;;;9.20;8.30;;;18.10;99.90;;;;;;5083758;28;20619;-77
2021/06/06 02:58:17;;;;;;;9.40;8.50;;;18.10;99.90;;;;;;5114764;28;20561;-77
2021/06/06 03:01:01;;;;;;;9.07;8.27;;;18.10;99.90;;;;;;5102322;28;20618;-76
2021/06/06 03:03:37;;;;;;;10.50;8.57;;;18.10;99.90;;;;;;5112590;28;20612;-77
2021/06/06 03:06:22;;;;;;;10.40;8.93;;;18.10;99.90;;;;;;5082614;28;20686;-77
2021/06/06 03:08:48;;;;;;;10.33;9.33;;;18.10;99.90;;;;;;5012391;28;20612;-76
2021/06/06 03:11:17;;;;;;;9.80;8.90;;;18.10;99.90;;;;;;5097620;28;20579;-76
2021/06/06 03:13:51;;;;;;;9.90;8.93;;;18.10;99.90;;;;;;5097793;28;20623;-76
2021/06/06 03:16:18;;;;;;;12.30;11.10;;;18.10;99.90;;;;;;5080819;28;20596;-75
2021/06/06 03:18:56;;;;;;;10.10;9.07;;;18.10;99.90;;;;;;5099063;28;20584;-75
2021/06/06 03:21:44;;;;;;;11.53;10.43;;;18.10;99.90;;;;;;5116573;28;20569;-75
2021/06/06 03:24:14;;;;;;;11.33;10.30;;;18.10;99.90;;;;;;5115073;28;20667;-75
2021/06/06 03:26:44;;;;;;;12.03;10.70;;;18.10;99.90;;;;;;5011039;28;20580;-75
2021/06/06 03:29:15;;;;;;;12.50;10.20;;;18.10;99.90;;;;;;5115338;28;20576;-75
2021/06/06 03:31:47;;;;;;;10.60;9.60;;;18.10;99.90;;;;;;5114734;28;20565;-75
2021/06/06 03:34:15;;;;;;;12.97;10.87;;;18.10;99.90;;;;;;5096916;28;20617;-75
2021/06/06 03:36:46;;;;;;;13.63;9.53;;;18.10;99.90;;;;;;5096702;28;20602;-76
2021/06/06 03:39:55;;;;;;;13.07;9.73;;;18.10;99.90;;;;;;5083642;28;20909;-76
2021/06/06 03:42:30;;;;;;;9.37;8.47;;;18.10;99.90;;;;;;5095927;28;20580;-76
2021/06/06 03:44:58;;;;;;;12.13;10.50;;;18.10;99.90;;;;;;5114105;28;20607;-76
2021/06/06 03:47:25;;;;;;;10.90;9.90;;;18.10;99.90;;;;;;5113941;28;21159;-76
2021/06/06 03:49:53;;;;;;;10.07;9.17;;;18.10;99.90;;;;;;5096317;28;20580;-76
2021/06/06 03:52:19;;;;;;;10.43;9.17;;;18.10;99.90;;;;;;4978614;28;20583;-76
2021/06/06 03:54:47;;;;;;;10.53;9.53;;;18.10;99.90;;;;;;5096174;28;20697;-76
2021/06/06 03:57:14;;;;;;;10.27;9.30;;;18.00;99.90;;;;;;5078499;28;20662;-76
2021/06/06 03:59:42;;;;;;;10.40;9.40;;;18.00;99.90;;;;;;5095202;28;20591;-76
2021/06/06 04:02:07;;;;;;;15.20;11.27;;;18.00;99.90;;;;;;5114082;28;20558;-76
2021/06/06 04:04:35;;;;;;;11.27;10.20;;;18.00;99.90;;;;;;5062390;28;20194;-76
2021/06/06 04:07:03;;;;;;;10.00;9.00;;;17.90;99.90;;;;;;5095050;28;20553;-76
2021/06/06 04:09:31;;;;;;;9.63;8.83;;;18.00;99.90;;;;;;5095782;28;20952;-77
2021/06/06 04:12:06;;;;;;;10.37;9.07;;;18.00;99.90;;;;;;5081516;28;20668;-77
2021/06/06 04:14:45;;;;;;;11.40;10.20;;;18.00;99.90;;;;;;5096051;28;20628;-77
2021/06/06 04:17:11;;;;;;;10.33;9.00;;;18.00;99.90;;;;;;5083546;28;20573;-77
2021/06/06 04:19:41;;;;;;;9.87;8.87;;;18.00;99.90;;;;;;5095538;28;20607;-77
2021/06/06 04:22:08;;;;;;;9.93;8.93;;;18.00;99.90;;;;;;5078527;28;20648;-76
2021/06/06 04:24:34;;;;;;;10.17;8.97;;;18.00;99.90;;;;;;5113630;28;20620;-77
2021/06/06 04:27:04;;;;;;;10.80;9.17;;;17.90;99.90;;;;;;5094995;28;20572;-76
2021/06/06 04:29:30;;;;;;;9.70;8.80;;;18.00;99.90;;;;;;5113402;28;21151;-77
2021/06/06 04:32:04;;;;;;;9.00;8.20;;;18.00;99.90;;;;;;5113172;28;20565;-77
2021/06/06 04:34:36;;;;;;;8.90;8.10;;;18.00;99.90;;;;;;5078201;28;20647;-76
2021/06/06 04:37:02;;;;;;;8.70;7.83;;;18.00;99.90;;;;;;5077752;28;20576;-76
2021/06/06 04:39:29;;;;;;;8.60;7.80;;;18.00;99.90;;;;;;5113118;28;20664;-77
2021/06/06 04:41:56;;;;;;;9.20;8.23;;;18.00;99.90;;;;;;5094985;28;20588;-76
2021/06/06 04:44:26;;;;;;;9.83;8.77;;;18.00;99.90;;;;;;5079207;28;20939;-76
2021/06/06 04:46:54;;;;;;;11.77;10.07;;;18.00;99.90;;;;;;5094469;28;20700;-76
2021/06/06 04:49:25;;;;;;;10.60;9.70;;;18.10;99.90;;;;;;5095872;28;20579;-76
2021/06/06 04:51:52;;;;;;;10.70;9.60;;;18.10;99.90;;;;;;5117663;28;20573;-76
2021/06/06 04:54:27;;;;;;;11.97;10.87;;;18.00;99.90;;;;;;5094555;28;20635;-76
2021/06/06 04:57:03;;;;;;;13.13;11.83;;;18.00;99.90;;;;;;5095316;28;20561;-76
2021/06/06 04:59:35;;;;;;;11.87;10.77;;;18.10;99.90;;;;;;5093906;28;20915;-76
2021/06/06 05:02:06;;;;;;;11.60;10.50;;;18.00;99.90;;;;;;5094437;28;20651;-76
2021/06/06 05:04:33;;;;;;;10.83;9.83;;;18.00;99.90;;;;;;5094404;28;20658;-76
2021/06/06 05:07:03;;;;;;;11.83;10.83;;;18.00;99.90;;;;;;5077202;28;21132;-76
2021/06/06 05:09:39;;;;;;;11.70;10.50;;;18.00;99.90;;;;;;5077642;28;20576;-76
2021/06/06 05:12:09;;;;;;;13.20;10.53;;;18.00;99.90;;;;;;5077952;28;20681;-76
2021/06/06 05:14:38;;;;;;;11.07;9.93;;;17.90;99.90;;;;;;5077219;28;20679;-76
2021/06/06 05:17:09;;;;;;;12.57;10.90;;;17.90;99.90;;;;;;5093828;28;20967;-77
2021/06/06 05:19:52;;;;;;;12.17;10.53;;;17.90;99.90;;;;;;4992131;28;20579;-77
2021/06/06 05:22:21;;;;;;;11.73;10.53;;;17.90;99.90;;;;;;5093767;28;20565;-77
2021/06/06 05:24:50;;;;;;;13.10;11.70;;;17.90;99.90;;;;;;4992569;28;20611;-77
2021/06/06 05:27:18;;;;;;;12.70;11.50;;;17.90;99.90;;;;;;5077132;28;21233;-77
2021/06/06 05:29:46;;;;;;;14.40;11.87;;;17.90;99.90;;;;;;5099409;28;20667;-77
2021/06/06 05:32:11;;;;;;;11.90;10.80;;;17.80;99.90;;;;;;5094182;28;21175;-77
2021/06/06 05:34:39;;;;;;;12.43;10.80;;;17.80;99.90;;;;;;5112100;28;20282;-77
2021/06/06 05:37:09;;;;;;;10.93;9.93;;;17.80;99.90;;;;;;5093691;28;20872;-77
2021/06/06 05:39:35;;;;;;;11.83;10.57;;;17.80;99.90;;;;;;5094161;28;20960;-77
2021/06/06 05:42:01;;;;;;;12.10;10.80;;;17.80;99.90;;;;;;5112115;28;20565;-77
2021/06/06 05:44:28;;;;;;;14.13;12.63;;;17.80;99.90;;;;;;5094017;28;20577;-77
2021/06/06 05:46:54;;;;;;;13.73;11.63;;;17.70;99.90;;;;;;5111517;28;20583;-78
2021/06/06 05:49:19;;;;;;;14.07;12.47;;;17.70;99.90;;;;;;5112279;28;20174;-78
2021/06/06 05:51:52;;;;;;;14.20;11.87;;;17.70;99.90;;;;;;5094061;28;20174;-78
2021/06/06 05:54:23;;;;;;;12.93;11.60;;;17.70;99.90;;;;;;5111015;28;21067;-77
2021/06/06 05:56:51;;;;;;;13.33;12.03;;;17.70;99.90;;;;;;5093269;28;20593;-79
2021/06/06 05:59:22;;;;;;;14.90;13.40;;;17.70;99.90;;;;;;5093951;28;20193;-78
2021/06/06 06:01:48;;;;;;;14.83;13.27;;;17.70;99.90;;;;;;5111402;28;20672;-78
2021/06/06 06:04:14;;;;;;;12.70;11.40;;;17.70;99.90;;;;;;5112010;28;21162;-78
2021/06/06 06:06:40;;;;;;;13.83;12.43;;;17.70;99.90;;;;;;5098706;28;20258;-78
2021/06/06 06:09:06;;;;;;;14.67;13.20;;;17.70;99.90;;;;;;5112009;28;20163;-79
2021/06/06 06:11:35;;;;;;;12.53;11.03;;;17.70;99.90;;;;;;5112063;28;20575;-78
2021/06/06 06:14:01;;;;;;;12.20;11.03;;;17.70;99.90;;;;;;5111688;28;20692;-79
2021/06/06 06:16:36;;;;;;;12.53;11.23;;;17.70;99.90;;;;;;5093228;28;20632;-79
2021/06/06 06:19:03;;;;;;;12.80;11.60;;;17.70;99.90;;;;;;5111961;28;20567;-78
2021/06/06 06:21:32;;;;;;;12.40;11.10;;;17.70;99.90;;;;;;5077209;28;20562;-76
2021/06/06 06:24:02;;;;;;;12.03;10.73;;;17.70;99.90;;;;;;5093819;28;20927;-77
2021/06/06 06:26:31;;;;;;;11.57;10.23;;;17.80;99.90;;;;;;5111275;28;20592;-77
2021/06/06 06:29:34;;;;;;;11.37;10.13;;;17.80;99.90;;;;;;5048902;28;20605;-79
2021/06/06 06:32:19;;;;;;;12.70;11.37;;;17.80;99.90;;;;;;5107477;28;20580;-77
2021/06/06 06:34:45;;;;;;;13.47;12.37;;;17.80;99.90;;;;;;5080079;28;21262;-76
2021/06/06 06:37:11;;;;;;;13.87;12.57;;;17.80;99.90;;;;;;5011241;28;20569;-76
2021/06/06 06:39:37;;;;;;;13.37;12.10;;;17.80;99.90;;;;;;5115444;28;20567;-77
2021/06/06 06:42:04;;;;;;;13.73;12.43;;;17.80;99.90;;;;;;5120126;28;20187;-78
2021/06/06 06:44:30;;;;;;;14.77;13.33;;;17.80;99.90;;;;;;5115717;28;21160;-77
2021/06/06 06:47:04;;;;;;;14.53;13.10;;;17.80;99.90;;;;;;5114990;28;20560;-77
2021/06/06 06:49:35;;;;;;;15.67;14.17;;;17.70;99.90;;;;;;5097106;28;20899;-77
2021/06/06 06:52:01;;;;;;;17.73;15.97;;;17.80;99.90;;;;;;5097213;28;20174;-77
2021/06/06 06:54:30;;;;;;;18.23;16.17;;;17.80;99.90;;;;;;5096316;28;21132;-77
2021/06/06 06:56:56;;;;;;;17.17;15.37;;;17.80;99.90;;;;;;5079619;28;20569;-77
2021/06/06 06:59:27;;;;;;;19.40;17.10;;;17.80;99.90;;;;;;5115217;28;20557;-77
2021/06/06 07:02:01;;;;;;;18.93;17.13;;;17.70;99.90;;;;;;5115334;28;20296;-77
2021/06/06 07:04:27;;;;;;;18.33;16.37;;;17.80;99.90;;;;;;5115231;28;20654;-77
2021/06/06 07:06:54;;;;;;;19.53;17.70;;;17.80;99.90;;;;;;5097630;28;20921;-77
2021/06/06 07:09:21;;;;;;;19.83;17.50;;;17.80;99.90;;;;;;5096821;28;20587;-77
2021/06/06 07:11:51;;;;;;;20.37;17.33;;;17.80;99.90;;;;;;5096924;28;20596;-77
2021/06/06 07:14:17;;;;;;;20.00;17.77;;;17.80;99.90;;;;;;5114783;28;20625;-77
2021/06/06 07:16:43;;;;;;;19.73;17.30;;;17.80;99.90;;;;;;5079169;28;20580;-79
2021/06/06 07:19:09;;;;;;;18.60;16.60;;;17.80;99.90;;;;;;5101849;28;20600;-79
2021/06/06 07:21:38;;;;;;;21.10;17.40;;;17.90;99.90;;;;;;5096624;28;20200;-79
2021/06/06 07:24:04;;;;;;;22.50;16.80;;;17.90;99.90;;;;;;5096978;28;20292;-79
2021/06/06 07:26:37;;;;;;;22.90;20.60;;;17.90;99.90;;;;;;5114525;28;20643;-79
2021/06/06 07:29:08;;;;;;;19.70;17.60;;;17.90;99.90;;;;;;5079708;28;20568;-79
2021/06/06 07:31:36;;;;;;;19.83;17.73;;;17.90;99.90;;;;;;5096413;28;20569;-78
2021/06/06 07:34:03;;;;;;;21.00;18.50;;;17.90;99.90;;;;;;5079621;28;20623;-79
2021/06/06 07:36:29;;;;;;;23.27;17.80;;;18.00;99.90;;;;;;5113303;28;20589;-79
2021/06/06 07:38:55;;;;;;;19.87;17.77;;;18.00;99.90;;;;;;5114837;28;20583;-80
2021/06/06 07:41:25;;;;;;;19.90;17.90;;;18.10;99.90;;;;;;5096126;28;20174;-80
2021/06/06 07:43:51;;;;;;;21.10;18.90;;;18.10;99.90;;;;;;5079670;28;20572;-79
2021/06/06 07:46:18;;;;;;;19.77;17.70;;;18.10;99.90;;;;;;5095233;28;20658;-79
2021/06/06 07:48:44;;;;;;;22.03;17.23;;;18.20;99.90;;;;;;5096209;28;20570;-79
2021/06/06 07:51:11;;;;;;;19.43;17.10;;;18.20;99.90;;;;;;5114581;28;20631;-79
2021/06/06 07:53:37;;;;;;;21.50;17.57;;;18.30;99.90;;;;;;5096991;28;20613;-81
2021/06/06 07:56:05;;;;;;;19.67;17.67;;;18.30;99.90;;;;;;5101031;28;20719;-80
2021/06/06 07:58:38;;;;;;;21.17;18.97;;;18.30;99.90;;;;;;5094630;28;20573;-79
2021/06/06 08:01:15;;;;;;;21.50;19.20;;;18.30;99.90;;;;;;5079240;28;20569;-80
2021/06/06 08:03:44;;;;;;;20.53;17.57;;;18.30;99.90;;;;;;5095908;28;20588;-80
2021/06/06 08:06:12;;;;;;;20.60;17.13;;;18.30;99.90;;;;;;5096083;28;20600;-79
2021/06/06 08:08:38;;;;;;;22.93;18.83;;;18.20;99.90;;;;;;5095360;28;20597;-79
2021/06/06 08:11:05;;;;;;;21.13;17.10;;;18.30;99.90;;;;;;5113873;28;20597;-79
2021/06/06 08:13:38;;;;;;;20.50;17.00;;;18.30;99.90;;;;;;5095788;28;20703;-79
2021/06/06 08:16:05;;;;;;;20.20;16.97;;;18.30;99.90;;;;;;5115522;28;20585;-79
2021/06/06 08:18:47;;;;;;;22.27;17.43;;;18.30;99.90;;;;;;5096677;28;20677;-80
2021/06/06 08:21:29;;;;;;;16.40;14.70;;;18.30;99.90;;;;;;5078037;28;20572;-77
2021/06/06 08:23:58;;;;;;;17.30;15.50;;;18.30;99.90;;;;;;5078619;28;21135;-76
2021/06/06 08:26:33;;;;;;;20.93;17.40;;;18.40;99.90;;;;;;5096514;28;20653;-77
2021/06/06 08:28:59;;;;;;;17.50;15.70;;;18.40;99.90;;;;;;5119402;28;20618;-77
2021/06/06 08:31:34;;;;;;;19.00;16.33;;;18.50;99.90;;;;;;5125249;28;20576;-76
2021/06/06 08:36:57;;;;;;;20.33;16.60;;;18.60;99.90;;;;;;5283480;22;20670;-76
2021/06/06 08:39:26;;;;;;;20.67;17.13;;;18.60;99.90;;;;;;5066064;28;20653;-78
2021/06/06 08:42:05;;;;;;;21.67;18.90;;;18.70;99.90;;;;;;5032519;28;21437;-77
2021/06/06 08:44:35;;;;;;;20.70;16.17;;;18.70;99.90;;;;;;5044368;28;20611;-75
2021/06/06 08:47:00;;;;;;;21.00;17.97;;;18.70;99.90;;;;;;5036929;28;20587;-76
2021/06/06 08:49:38;;;;;;;16.57;14.80;;;18.70;99.90;;;;;;5037986;28;20582;-76
2021/06/06 08:52:25;;;;;;;22.83;17.23;;;18.80;99.90;;;;;;5057529;28;20535;-76
2021/06/06 08:55:18;;;;;;;16.80;14.70;;;18.90;99.90;;;;;;5034619;28;21103;-76
2021/06/06 08:57:49;;;;;;;20.63;15.17;;;18.90;99.90;;;;;;5033214;28;20690;-75
2021/06/06 09:00:39;;;;;;;19.63;16.97;;;18.90;99.90;;;;;;5052442;28;20571;-75
2021/06/06 09:03:12;;;;;;;16.73;14.70;;;18.90;99.90;;;;;;5052268;28;21063;-76
2021/06/06 09:05:43;;;;;;;19.43;16.97;;;19.00;99.90;;;;;;5034732;28;20614;-77
2021/06/06 09:08:14;;;;;;;16.67;14.70;;;19.00;99.90;;;;;;5052594;28;21214;-77
2021/06/06 09:10:45;;;;;;;18.27;16.37;;;19.10;99.90;;;;;;5054370;28;20572;-77
2021/06/06 09:13:14;;;;;;;19.77;17.27;;;19.10;99.90;;;;;;5051902;28;20619;-78
2021/06/06 09:15:41;;;;;;;16.10;14.47;;;19.10;99.90;;;;;;5051987;28;20614;-77
2021/06/06 09:18:29;;;;;;;17.90;16.00;;;19.20;99.90;;;;;;5033798;28;21009;-76
2021/06/06 09:21:08;;;;;;;23.43;19.17;;;19.20;99.90;;;;;;5034476;28;20599;-77
2021/06/06 09:23:35;;;;;;;22.23;19.97;;;19.30;99.90;;;;;;5034301;28;20599;-77
2021/06/06 09:26:03;;;;;;;24.20;20.60;;;19.30;99.90;;;;;;5017463;28;20613;-77
2021/06/06 09:28:30;;;;;;;26.10;20.33;;;19.30;99.90;;;;;;5051527;28;20657;-76
2021/06/06 09:31:16;;;;;;;24.80;20.27;;;19.30;99.90;;;;;;5033976;28;20672;-77
2021/06/06 09:33:51;;;;;;;21.23;18.70;;;19.30;99.90;;;;;;5020231;28;20708;-76
2021/06/06 09:36:24;;;;;;;23.53;19.30;;;19.40;99.90;;;;;;5033774;28;20614;-76
2021/06/06 09:38:54;;;;;;;25.10;21.50;;;19.40;99.90;;;;;;5033726;28;20576;-76
2021/06/06 09:41:34;;;;;;;21.57;19.00;;;19.40;99.90;;;;;;5033871;28;20602;-75
2021/06/06 09:44:15;;;;;;;20.50;17.47;;;19.40;99.90;;;;;;5051663;28;20665;-77
2021/06/06 09:46:43;;;;;;;20.67;18.57;;;19.40;99.90;;;;;;5054851;28;20907;-77
2021/06/06 09:49:14;;;;;;;22.33;19.07;;;19.40;99.90;;;;;;5051476;28;20563;-77
2021/06/06 09:51:41;;;;;;;19.97;17.87;;;19.40;99.90;;;;;;5033850;28;20940;-78
2021/06/06 09:54:13;;;;;;;22.10;18.37;;;19.50;99.90;;;;;;5051585;28;20627;-77
2021/06/06 09:56:41;;;;;;;22.13;18.33;;;19.50;99.90;;;;;;5079046;22;20662;-78
2021/06/06 09:59:32;;;;;;;20.80;15.90;;;19.50;99.90;;;;;;5080358;28;20682;-77
2021/06/06 10:02:21;;;;;;;22.00;18.90;;;19.50;99.90;;;;;;5057977;28;20587;-77
2021/06/06 10:05:04;;;;;;;18.40;16.17;;;19.60;99.90;;;;;;5062459;28;20622;-78
2021/06/06 10:07:39;;;;;;;22.20;18.50;;;19.70;99.90;;;;;;5055770;28;20673;-77
2021/06/06 10:10:15;;;;;;;18.23;15.40;;;19.70;99.90;;;;;;5059439;28;20586;-77
2021/06/06 10:12:44;;;;;;;19.57;17.40;;;19.70;99.90;;;;;;5076036;28;20666;-77
2021/06/06 10:15:43;;;;;;;26.10;16.37;;;19.80;99.90;;;;;;5057731;28;20652;-78
2021/06/06 10:18:30;;;;;;;19.93;17.77;;;19.90;99.90;;;;;;5037886;28;20698;-78
2021/06/06 10:21:10;;;;;;;20.17;15.70;;;20.00;99.90;;;;;;5075803;28;20575;-77
2021/06/06 10:23:42;;;;;;;20.07;18.07;;;20.00;99.90;;;;;;5041096;28;20578;-78
2021/06/06 10:26:30;;;;;;;20.60;17.50;;;20.10;99.90;;;;;;5075316;28;20618;-78
2021/06/06 10:29:16;;;;;;;19.10;17.20;;;20.20;99.90;;;;;;5075632;28;20602;-78
2021/06/06 10:31:46;;;;;;;18.60;16.70;;;20.30;99.90;;;;;;5057386;28;20570;-78
2021/06/06 10:34:24;;;;;;;19.73;17.60;;;20.50;99.90;;;;;;5056937;28;20634;-78
2021/06/06 10:36:49;;;;;;;17.63;15.90;;;20.60;99.90;;;;;;5075040;28;20598;-78
2021/06/06 10:39:22;;;;;;;17.90;15.83;;;20.70;99.90;;;;;;5079776;28;20559;-78
2021/06/06 10:41:53;;;;;;;19.50;17.10;;;20.80;99.90;;;;;;5056755;28;20251;-83
2021/06/06 10:44:22;;;;;;;18.20;16.50;;;20.90;99.90;;;;;;5040182;28;20651;-82
2021/06/06 10:47:05;;;;;;;20.73;18.53;;;20.90;99.90;;;;;;5056324;28;20638;-83
2021/06/06 10:49:52;;;;;;;17.93;16.13;;;20.90;99.90;;;;;;5056612;28;20574;-83
2021/06/06 10:52:34;;;;;;;16.50;14.83;;;20.90;99.90;;;;;;5074402;28;20580;-83
2021/06/06 10:55:16;;;;;;;20.20;18.03;;;21.00;99.90;;;;;;5056167;28;20708;-82
2021/06/06 10:57:42;;;;;;;17.97;16.10;;;21.00;99.90;;;;;;5038897;28;21255;-83
2021/06/06 11:00:30;;;;;;;17.67;15.93;;;21.00;99.90;;;;;;5056327;28;20617;-83
2021/06/06 11:03:13;;;;;;;19.37;17.37;;;21.10;99.90;;;;;;5037916;28;20622;-82
2021/06/06 11:05:54;;;;;;;17.50;15.80;;;21.20;99.90;;;;;;5056296;28;20606;-83
2021/06/06 11:08:29;;;;;;;17.60;15.53;;;21.20;99.90;;;;;;5073562;28;20579;-83
2021/06/06 11:11:08;;;;;;;17.53;15.83;;;21.30;99.90;;;;;;5039596;28;20613;-83
2021/06/06 11:13:37;;;;;;;16.43;14.83;;;21.30;99.90;;;;;;5055572;28;20625;-82
2021/06/06 11:16:16;;;;;;;16.20;14.70;;;21.40;99.90;;;;;;5063828;28;20629;-83
2021/06/06 11:18:53;;;;;;;16.90;15.23;;;21.40;99.90;;;;;;5073937;28;20573;-83
2021/06/06 11:21:31;;;;;;;16.10;14.40;;;21.50;99.90;;;;;;5073403;28;20990;-83
2021/06/06 11:24:00;;;;;;;15.30;13.80;;;21.50;99.90;;;;;;5056456;28;20628;-82
2021/06/06 11:26:32;;;;;;;14.80;13.50;;;21.60;99.90;;;;;;5055557;28;20745;-83
2021/06/06 11:29:15;;;;;;;15.03;13.43;;;21.70;99.90;;;;;;5057723;28;20627;-82
2021/06/06 11:32:16;;;;;;;17.27;15.70;;;21.70;99.90;;;;;;5041175;28;20623;-82
2021/06/06 11:35:09;;;;;;;13.00;11.80;;;21.70;99.90;;;;;;5057245;28;21219;-83
2021/06/06 11:37:40;;;;;;;15.50;13.90;;;21.80;99.90;;;;;;5055328;28;20583;-83
2021/06/06 11:40:23;;;;;;;13.37;12.10;;;21.90;99.90;;;;;;5056054;28;21149;-83
2021/06/06 11:42:52;;;;;;;14.87;13.33;;;22.00;99.90;;;;;;5056115;28;20571;-83
2021/06/06 11:45:38;;;;;;;16.30;14.73;;;22.10;99.90;;;;;;5022533;28;20607;-82
2021/06/06 11:48:09;;;;;;;13.03;11.77;;;22.10;99.90;;;;;;5055624;28;20586;-83
2021/06/06 11:50:51;;;;;;;15.13;13.73;;;22.10;99.90;;;;;;5057818;28;20601;-84
2021/06/06 11:53:29;;;;;;;13.70;12.33;;;22.10;99.90;;;;;;5063842;28;20621;-83
2021/06/06 11:56:24;;;;;;;13.10;11.80;;;22.10;99.90;;;;;;5061751;28;20692;-83
2021/06/06 11:59:17;;;;;;;13.90;12.60;;;22.00;99.90;;;;;;5063210;28;20578;-83
2021/06/06 12:02:07;;;;;;;12.83;11.60;;;22.00;99.90;;;;;;5063885;28;20574;-83
2021/06/06 12:04:35;;;;;;;14.37;12.97;;;21.90;99.90;;;;;;5065401;28;20589;-84
2021/06/06 12:07:30;;;;;;;12.93;11.60;;;21.90;99.90;;;;;;5082390;28;20610;-83
2021/06/06 12:10:00;;;;;;;12.53;11.33;;;21.80;99.90;;;;;;5081157;28;20650;-83
2021/06/06 12:12:33;;;;;;;13.03;11.73;;;21.80;99.90;;;;;;5027834;28;20579;-83
2021/06/06 12:15:36;;;;;;;13.87;11.47;;;21.80;99.90;;;;;;5064388;28;20661;-83
2021/06/06 12:18:17;;;;;;;11.37;10.23;;;21.70;99.90;;;;;;5043576;28;20594;-83
2021/06/06 12:20:58;;;;;;;12.97;11.57;;;21.70;99.90;;;;;;5073305;28;20650;-83
2021/06/06 12:23:28;;;;;;;11.33;10.23;;;21.70;99.90;;;;;;5090205;28;20585;-83
2021/06/06 12:25:57;;;;;;;11.00;9.40;;;21.70;99.90;;;;;;5071879;28;21008;-83
2021/06/06 12:28:23;;;;;;;10.20;9.20;;;21.70;99.90;;;;;;5081523;28;20587;-83
2021/06/06 12:30:53;;;;;;;10.80;9.80;;;21.80;99.90;;;;;;5088720;28;20563;-83
2021/06/06 12:33:36;;;;;;;12.30;10.77;;;21.80;99.90;;;;;;5069990;28;21074;-83
2021/06/06 12:36:13;;;;;;;11.00;9.47;;;21.90;99.90;;;;;;5057741;28;20602;-83
2021/06/06 12:38:41;;;;;;;10.10;9.10;;;21.90;99.90;;;;;;5074145;28;20609;-83
2021/06/06 12:41:08;;;;;;;10.73;9.77;;;22.00;99.90;;;;;;5071238;28;20610;-83
2021/06/06 12:43:42;;;;;;;11.57;10.27;;;22.00;99.90;;;;;;5071408;28;20599;-84
2021/06/06 12:46:10;;;;;;;11.60;10.47;;;22.10;99.90;;;;;;5086963;28;20606;-84
2021/06/06 12:48:39;;;;;;;13.10;11.80;;;22.10;99.90;;;;;;5067810;28;20590;-83
2021/06/06 12:51:21;;;;;;;12.53;11.33;;;22.10;99.90;;;;;;5086728;28;20566;-83
2021/06/06 12:53:47;;;;;;;11.00;9.90;;;22.10;99.90;;;;;;5060306;28;20630;-83
2021/06/06 12:56:25;;;;;;;10.53;9.53;;;22.20;99.90;;;;;;5056138;28;20646;-83
2021/06/06 12:59:04;;;;;;;11.13;10.07;;;22.20;99.90;;;;;;5040131;28;20582;-82
2021/06/06 13:01:30;;;;;;;11.10;9.47;;;22.30;99.90;;;;;;5061106;28;20581;-82
2021/06/06 13:04:08;;;;;;;9.83;9.03;;;22.40;99.90;;;;;;5057351;28;20578;-82
2021/06/06 13:06:38;;;;;;;10.30;9.23;;;22.50;99.90;;;;;;5063365;28;20651;-82